Pagrindinis puslapis
METAR-TAF:

METAR-TAF

Oro uostai :

Kopenhaga, Danija

platuma: 55-37N, ilguma: 012-39E, Aukštis: 5 m

Dabartinis oras

Ataskaita buvo paskelbta 23 minutes, ne 18:20 UTC
Vėjas 11 kt iš Pietų/Pietvakarių
Temperatūra 13°C
Drėgmė 82%
Slėgis 1006 hPa
Matomumas 10 km arba daugiau

METAR: EKCH 221820Z AUTO 21011KT 9999 FEW026/// BKN130/// 13/10 Q1006 NOSIG

Laikas: 20:43 (18:43 UTC)

Prognozė

Ataskaita buvo paskelbta 1 valandą ir 41 minutes, ne 17:02 UTC
Prognozė galioja nuo 22 metu 18 UTC su 23 metu 18 UTC
Vėjas 15 kt iš Pietvakarių
Matomumas 10 km arba daugiau
Su prošvaistėmis ne aukštis 1800 ft
Laikinai
nuo 22 metu 18 UTC su 23 metu 06 UTC
Vėjas 15 kt iš Pietvakarių su gūsio iki 25 kt
Laikinai
nuo 23 metu 06 UTC su 23 metu 16 UTC
Išsisklaidę debesys ne aukštis 1500 ft, aukštai iškilę kamuoliniai debesys.

TAF: EKCH 221702Z 2218/2318 23015KT 9999 BKN018 TEMPO 2218/2306 22015G25KT TEMPO 2306/2316 SCT015TCU

Orai ataskaitas ir orų prognozės (METAR, TAF).

turimą stotys yra geltonos ir raudonos taškus žemėlapyje.

Perkelti pele per norėdami pamatyti stoties vardą.

Tada spustelėkite, norėdami matyti oro stebėjimo ir prognozės.

Norėdami pakeisti žemėlapį: spustelėkite ant žalios mygtukų su juodo kryžiaus žemyn,; žalią mygtuką su brūkšneliu, jei norite nutolinti; arba žalių rodyklių gretimoms žemėlapius.


METAR-TAF: